createdAt,value
2017-10-26T00:00:42.066Z,15.19
2017-10-26T00:03:07.804Z,15.12
2017-10-26T00:05:33.671Z,15.07
2017-10-26T00:07:59.415Z,15.11
2017-10-26T00:10:25.156Z,15.05
2017-10-26T00:12:50.947Z,15.12
2017-10-26T00:15:16.707Z,15.12
2017-10-26T00:17:42.467Z,15.08
2017-10-26T00:20:08.228Z,15.08
2017-10-26T00:22:33.983Z,15.08
2017-10-26T00:24:59.743Z,15.14
2017-10-26T00:27:25.499Z,15.18
2017-10-26T00:29:51.259Z,15.07
2017-10-26T00:32:17.027Z,15.08
2017-10-26T00:34:42.786Z,15.12
2017-10-26T00:37:08.543Z,15.12
2017-10-26T00:39:34.310Z,15.19
2017-10-26T00:42:00.176Z,15.18
2017-10-26T00:44:26.802Z,15.20
2017-10-26T00:46:52.576Z,15.18
2017-10-26T00:49:18.321Z,15.16
2017-10-26T00:51:44.081Z,15.14
2017-10-26T00:54:09.880Z,15.09
2017-10-26T00:56:35.684Z,14.97
2017-10-26T00:59:01.431Z,14.97
2017-10-26T01:01:27.208Z,14.92
2017-10-26T01:03:52.989Z,14.84
2017-10-26T01:06:18.763Z,14.73
2017-10-26T01:08:44.519Z,14.67
2017-10-26T01:11:10.263Z,14.60
2017-10-26T01:13:36.042Z,14.57
2017-10-26T01:16:01.782Z,14.55
2017-10-26T01:18:27.578Z,14.48
2017-10-26T01:20:53.343Z,14.39
2017-10-26T01:23:19.094Z,14.30
2017-10-26T01:25:44.898Z,14.21
2017-10-26T01:28:10.688Z,14.24
2017-10-26T01:30:36.438Z,13.98
2017-10-26T01:33:02.201Z,13.87
2017-10-26T01:35:27.972Z,13.89
2017-10-26T01:37:53.750Z,13.91
2017-10-26T01:40:19.523Z,13.90
2017-10-26T01:42:45.354Z,13.90
2017-10-26T01:45:11.139Z,13.89
2017-10-26T01:47:36.923Z,13.85
2017-10-26T01:50:02.677Z,13.59
2017-10-26T01:52:28.556Z,13.39
2017-10-26T01:54:54.320Z,13.33
2017-10-26T01:57:20.106Z,13.13
2017-10-26T01:59:45.868Z,12.99
2017-10-26T02:02:11.644Z,13.02
2017-10-26T02:04:37.470Z,12.98
2017-10-26T02:07:03.299Z,12.94
2017-10-26T02:09:29.085Z,13.03
2017-10-26T02:11:54.867Z,13.06
2017-10-26T02:14:20.643Z,12.98
2017-10-26T02:16:46.408Z,12.82
2017-10-26T02:19:12.167Z,12.65
2017-10-26T02:21:37.951Z,12.68
2017-10-26T02:24:03.725Z,12.67
2017-10-26T02:26:29.503Z,12.74
2017-10-26T02:29:07.815Z,12.74
2017-10-26T02:31:33.636Z,12.73
2017-10-26T02:33:59.379Z,12.67
2017-10-26T02:36:25.183Z,12.62
2017-10-26T02:38:50.960Z,12.55
2017-10-26T02:41:16.721Z,12.34
2017-10-26T02:43:42.496Z,12.34
2017-10-26T02:46:08.292Z,12.34
2017-10-26T02:48:34.071Z,12.30
2017-10-26T02:50:59.839Z,12.37
2017-10-26T02:53:25.591Z,12.41
2017-10-26T02:55:51.346Z,12.57
2017-10-26T02:58:17.112Z,12.62
2017-10-26T03:00:42.908Z,12.67
2017-10-26T03:03:08.740Z,12.70
2017-10-26T03:05:34.535Z,12.73
2017-10-26T03:08:00.332Z,12.75
2017-10-26T03:10:26.087Z,12.76
2017-10-26T03:12:51.908Z,12.82
2017-10-26T03:15:17.663Z,12.84
2017-10-26T03:17:43.417Z,12.82
2017-10-26T03:20:09.236Z,12.81
2017-10-26T03:22:37.067Z,12.76
2017-10-26T03:25:02.941Z,12.69
2017-10-26T03:27:28.711Z,12.66
2017-10-26T03:29:54.480Z,12.63
2017-10-26T03:32:20.232Z,12.65
2017-10-26T03:34:46.005Z,12.73
2017-10-26T03:37:11.783Z,12.82
2017-10-26T03:39:37.523Z,12.81
2017-10-26T03:42:03.312Z,12.86
2017-10-26T03:44:29.064Z,13.02
2017-10-26T03:46:54.882Z,12.94
2017-10-26T03:49:20.651Z,12.91
2017-10-26T03:51:46.398Z,12.91
2017-10-26T03:54:12.152Z,12.96
2017-10-26T03:56:38.010Z,12.88
2017-10-26T03:59:03.786Z,12.86
2017-10-26T04:01:29.538Z,12.93
2017-10-26T04:03:55.295Z,12.88
2017-10-26T04:06:21.096Z,12.81
2017-10-26T04:08:46.838Z,12.88
2017-10-26T04:11:12.639Z,12.97
2017-10-26T04:13:38.419Z,12.98
2017-10-26T04:16:04.211Z,12.99
2017-10-26T04:18:30.005Z,12.94
2017-10-26T04:20:55.779Z,12.94
2017-10-26T04:23:21.586Z,12.92
2017-10-26T04:25:47.401Z,12.98
2017-10-26T04:28:13.251Z,12.97
2017-10-26T04:30:39.018Z,12.94
2017-10-26T04:33:04.940Z,12.94
2017-10-26T04:35:30.765Z,13.01
2017-10-26T04:37:56.534Z,13.01
2017-10-26T04:40:22.314Z,13.11
2017-10-26T04:42:48.083Z,13.15
2017-10-26T04:45:13.872Z,13.17
2017-10-26T04:47:39.706Z,13.18
2017-10-26T04:50:05.463Z,13.13
2017-10-26T04:52:31.224Z,13.12
2017-10-26T04:54:57.896Z,13.09
2017-10-26T04:57:23.666Z,13.03
2017-10-26T04:59:49.443Z,13.06
2017-10-26T05:02:15.216Z,13.10
2017-10-26T05:04:41.026Z,13.06
2017-10-26T05:07:06.789Z,12.99
2017-10-26T05:09:32.557Z,13.00
2017-10-26T05:11:58.302Z,12.91
2017-10-26T05:14:24.082Z,12.88
2017-10-26T05:16:49.848Z,12.86
2017-10-26T05:19:15.619Z,12.89
2017-10-26T05:21:41.368Z,12.89
2017-10-26T05:24:07.143Z,12.89
2017-10-26T05:26:32.905Z,12.93
2017-10-26T05:28:58.679Z,12.95
2017-10-26T05:31:24.435Z,13.03
2017-10-26T05:33:50.217Z,13.04
2017-10-26T05:36:15.998Z,12.98
2017-10-26T05:38:41.755Z,12.99
2017-10-26T05:41:07.713Z,12.98
2017-10-26T05:43:33.504Z,12.92
2017-10-26T05:45:59.275Z,12.96
2017-10-26T05:48:25.060Z,12.96
2017-10-26T05:50:50.864Z,12.81
2017-10-26T05:53:16.632Z,12.70
2017-10-26T05:55:42.409Z,12.58
2017-10-26T05:58:08.193Z,12.39
2017-10-26T06:00:33.959Z,12.40
2017-10-26T06:02:59.727Z,12.38
2017-10-26T06:05:25.480Z,12.39
2017-10-26T06:07:51.255Z,12.45
2017-10-26T06:10:17.054Z,12.33
2017-10-26T06:12:42.794Z,12.39
2017-10-26T06:15:08.571Z,12.51
2017-10-26T06:17:34.318Z,12.65
2017-10-26T06:20:00.063Z,12.67
2017-10-26T06:22:25.831Z,12.70
2017-10-26T06:24:51.583Z,12.62
2017-10-26T06:27:17.427Z,12.68
2017-10-26T06:29:43.184Z,12.75
2017-10-26T06:32:08.954Z,12.73
2017-10-26T06:34:34.742Z,12.81
2017-10-26T06:37:00.536Z,12.90
2017-10-26T06:39:26.290Z,12.94
2017-10-26T06:41:52.044Z,12.90
2017-10-26T06:44:17.808Z,12.96
2017-10-26T06:46:43.565Z,12.88
2017-10-26T06:49:09.364Z,12.71
2017-10-26T06:51:35.118Z,12.53
2017-10-26T06:54:00.874Z,12.45
2017-10-26T06:56:26.655Z,12.56
2017-10-26T06:58:52.438Z,12.67
2017-10-26T07:01:18.200Z,12.72
2017-10-26T07:03:43.957Z,12.84
2017-10-26T07:06:09.769Z,12.89
2017-10-26T07:08:35.555Z,12.98
2017-10-26T07:11:01.299Z,12.97
2017-10-26T07:13:27.064Z,12.95
2017-10-26T07:15:52.832Z,12.89
2017-10-26T07:18:18.600Z,12.83
2017-10-26T07:20:44.339Z,12.86
2017-10-26T07:23:10.106Z,12.91
2017-10-26T07:25:35.858Z,12.88
2017-10-26T07:28:01.635Z,12.85
2017-10-26T07:30:27.373Z,12.84
2017-10-26T07:32:53.152Z,12.89
2017-10-26T07:35:18.927Z,12.92
2017-10-26T07:37:44.670Z,12.93
2017-10-26T07:40:10.469Z,12.99
2017-10-26T07:42:36.231Z,13.09
2017-10-26T07:45:02.023Z,13.22
2017-10-26T07:47:27.823Z,13.32
2017-10-26T07:49:53.590Z,13.42
2017-10-26T07:52:19.351Z,13.57
2017-10-26T07:54:45.118Z,13.65
2017-10-26T07:57:10.899Z,13.85
2017-10-26T07:59:36.643Z,13.86
2017-10-26T08:02:02.428Z,13.75
2017-10-26T08:04:28.216Z,13.76
2017-10-26T08:06:53.964Z,13.87
2017-10-26T08:09:19.735Z,14.13
2017-10-26T08:11:45.507Z,14.40
2017-10-26T08:14:11.304Z,14.52
2017-10-26T08:16:37.056Z,14.56
2017-10-26T08:19:02.817Z,14.41
2017-10-26T08:21:28.621Z,14.37
2017-10-26T08:23:54.366Z,14.53
2017-10-26T08:26:20.161Z,14.46
2017-10-26T08:28:45.962Z,14.34
2017-10-26T08:31:11.709Z,14.59
2017-10-26T08:33:37.495Z,14.68
2017-10-26T08:36:03.310Z,14.90
2017-10-26T08:38:29.089Z,14.66
2017-10-26T08:40:54.863Z,14.58
2017-10-26T08:43:20.608Z,14.61
2017-10-26T08:45:46.425Z,14.90
2017-10-26T08:48:12.167Z,15.20
2017-10-26T08:50:37.956Z,15.40
2017-10-26T08:53:03.778Z,15.74
2017-10-26T08:55:29.539Z,16.01
2017-10-26T08:57:55.283Z,15.84
2017-10-26T09:00:21.123Z,15.91
2017-10-26T09:02:46.933Z,15.74
2017-10-26T09:05:12.733Z,15.81
2017-10-26T09:07:38.507Z,15.93
2017-10-26T09:10:04.272Z,15.74
2017-10-26T09:12:30.055Z,15.90
2017-10-26T09:14:55.848Z,16.41
2017-10-26T09:17:21.623Z,17.06
2017-10-26T09:19:47.411Z,17.58
2017-10-26T09:22:13.172Z,18.37
2017-10-26T09:24:38.938Z,18.94
2017-10-26T09:27:04.728Z,19.87
2017-10-26T09:29:30.543Z,20.66
2017-10-26T09:31:56.306Z,20.92
2017-10-26T09:34:22.094Z,21.22
2017-10-26T09:36:47.876Z,22.21
2017-10-26T09:39:13.619Z,23.00
2017-10-26T09:41:39.404Z,23.36
2017-10-26T09:44:05.187Z,24.14
2017-10-26T09:46:30.948Z,24.98
2017-10-26T09:48:56.750Z,24.96
2017-10-26T09:51:22.512Z,24.81
2017-10-26T09:53:48.436Z,25.64
2017-10-26T09:56:14.207Z,25.74
2017-10-26T09:58:40.007Z,25.29
2017-10-26T10:01:05.808Z,25.75
2017-10-26T10:03:31.599Z,26.01
2017-10-26T10:05:57.380Z,26.28
2017-10-26T10:08:23.152Z,26.74
2017-10-26T10:10:48.957Z,27.00
2017-10-26T10:13:14.727Z,26.78
2017-10-26T10:15:40.522Z,26.20
2017-10-26T10:18:06.298Z,26.74
2017-10-26T10:20:32.107Z,27.74
2017-10-26T10:22:57.896Z,27.78
2017-10-26T10:25:23.714Z,27.78
2017-10-26T10:27:49.504Z,27.93
2017-10-26T10:30:15.279Z,27.81
2017-10-26T10:32:41.089Z,28.58
2017-10-26T10:35:06.859Z,28.35
2017-10-26T10:37:32.638Z,28.62
2017-10-26T10:39:58.406Z,29.02
2017-10-26T10:42:24.206Z,28.95
2017-10-26T10:44:50.023Z,28.57
2017-10-26T10:47:15.827Z,28.23
2017-10-26T10:49:41.619Z,28.39
2017-10-26T10:52:07.416Z,28.58
2017-10-26T10:54:33.212Z,28.77
2017-10-26T10:56:59.019Z,28.45
2017-10-26T10:59:31.028Z,28.22
2017-10-26T11:01:56.827Z,27.84
2017-10-26T11:04:22.585Z,28.13
2017-10-26T11:06:48.344Z,28.38
2017-10-26T11:09:14.143Z,28.81
2017-10-26T11:11:39.911Z,29.01
2017-10-26T11:14:05.681Z,28.68
2017-10-26T11:16:31.489Z,29.07
2017-10-26T11:18:57.252Z,29.43
2017-10-26T11:21:23.045Z,29.22
2017-10-26T11:23:48.799Z,29.12
2017-10-26T11:26:14.590Z,29.50
2017-10-26T11:28:40.335Z,29.45
2017-10-26T11:31:06.141Z,28.90
2017-10-26T11:33:31.920Z,29.03
2017-10-26T11:35:57.687Z,28.52
2017-10-26T11:38:23.487Z,28.29
2017-10-26T11:40:49.294Z,28.08
2017-10-26T11:43:15.092Z,28.11
2017-10-26T11:45:40.872Z,27.64
2017-10-26T11:48:06.646Z,27.35
2017-10-26T11:50:32.479Z,27.15
2017-10-26T11:52:58.248Z,26.60
2017-10-26T11:55:24.023Z,26.50
2017-10-26T11:57:49.854Z,26.20
2017-10-26T12:00:15.709Z,26.14
2017-10-26T12:02:41.499Z,26.26
2017-10-26T12:05:07.284Z,26.39
2017-10-26T12:07:33.080Z,26.67
2017-10-26T12:09:58.852Z,27.21
2017-10-26T12:12:24.642Z,27.43
2017-10-26T12:14:50.447Z,27.51
2017-10-26T12:17:16.207Z,27.60
2017-10-26T12:19:42.008Z,27.74
2017-10-26T12:22:07.777Z,28.01
2017-10-26T12:24:33.558Z,27.98
2017-10-26T12:26:59.360Z,28.15
2017-10-26T12:29:25.126Z,28.26
2017-10-26T12:31:50.910Z,28.05
2017-10-26T12:34:16.745Z,27.79
2017-10-26T12:36:42.590Z,27.53
2017-10-26T12:39:08.409Z,27.96
2017-10-26T12:41:34.163Z,28.42
2017-10-26T12:43:59.951Z,28.67
2017-10-26T12:46:25.759Z,28.88
2017-10-26T12:48:51.535Z,28.07
2017-10-26T12:51:17.307Z,27.61
2017-10-26T12:53:43.154Z,27.61
2017-10-26T12:56:09.087Z,27.67
2017-10-26T12:58:34.871Z,27.91
2017-10-26T13:01:00.663Z,27.61
2017-10-26T13:03:26.491Z,27.08
2017-10-26T13:05:52.251Z,26.54
2017-10-26T13:08:18.052Z,25.95
2017-10-26T13:10:43.812Z,26.06
2017-10-26T13:13:09.640Z,25.92
2017-10-26T13:15:35.422Z,25.56
2017-10-26T13:18:01.207Z,24.97
2017-10-26T13:20:26.992Z,24.54
2017-10-26T13:22:52.786Z,24.25
2017-10-26T13:25:18.612Z,23.69
2017-10-26T13:27:44.371Z,23.73
2017-10-26T13:30:10.147Z,23.76
2017-10-26T13:32:35.911Z,23.86
2017-10-26T13:35:01.674Z,24.05
2017-10-26T13:37:27.440Z,24.26
2017-10-26T13:39:53.199Z,24.58
2017-10-26T13:42:19.043Z,24.92
2017-10-26T13:44:44.834Z,25.16
2017-10-26T13:47:11.783Z,25.64
2017-10-26T13:49:37.552Z,25.91
2017-10-26T13:52:03.303Z,25.96
2017-10-26T13:54:29.198Z,25.66
2017-10-26T13:56:54.986Z,25.69
2017-10-26T13:59:20.752Z,25.33
2017-10-26T14:01:46.581Z,25.46
2017-10-26T14:04:12.337Z,25.56
2017-10-26T14:06:38.164Z,25.54
2017-10-26T14:09:04.035Z,25.15
2017-10-26T14:11:29.793Z,25.21
2017-10-26T14:13:55.579Z,25.43
2017-10-26T14:16:21.407Z,25.40
2017-10-26T14:18:47.148Z,24.84
2017-10-26T14:21:12.943Z,24.42
2017-10-26T14:23:38.767Z,24.14
2017-10-26T14:26:04.588Z,23.88
2017-10-26T14:28:30.403Z,23.50
2017-10-26T14:30:56.163Z,23.19
2017-10-26T14:33:21.946Z,23.21
2017-10-26T14:35:47.777Z,23.03
2017-10-26T14:38:13.535Z,22.67
2017-10-26T14:40:39.332Z,22.50
2017-10-26T14:43:05.114Z,22.75
2017-10-26T14:45:30.880Z,22.66
2017-10-26T14:47:56.644Z,23.00
2017-10-26T14:50:22.395Z,23.20
2017-10-26T14:52:48.188Z,23.45
2017-10-26T14:55:13.987Z,23.83
2017-10-26T14:57:39.728Z,24.07
2017-10-26T15:00:05.486Z,24.53
2017-10-26T15:02:31.248Z,24.78
2017-10-26T15:04:57.017Z,24.63
2017-10-26T15:07:22.798Z,24.55
2017-10-26T15:09:48.559Z,24.74
2017-10-26T15:12:14.327Z,24.89
2017-10-26T15:14:40.090Z,24.71
2017-10-26T15:17:05.889Z,24.60
2017-10-26T15:19:31.636Z,24.46
2017-10-26T15:21:57.401Z,24.38
2017-10-26T15:24:23.325Z,24.60
2017-10-26T15:26:49.775Z,24.81
2017-10-26T15:29:16.931Z,24.81
2017-10-26T15:31:44.123Z,24.60
2017-10-26T15:34:11.729Z,24.37
2017-10-26T15:36:39.458Z,24.13
2017-10-26T15:39:06.484Z,23.89
2017-10-26T15:41:33.155Z,23.81
2017-10-26T15:43:59.217Z,23.59
2017-10-26T15:46:24.982Z,23.38
2017-10-26T15:48:50.822Z,23.08
2017-10-26T15:51:16.603Z,22.83
2017-10-26T15:53:42.467Z,22.51
2017-10-26T15:56:08.458Z,22.05
2017-10-26T15:58:38.138Z,21.63
2017-10-26T16:01:03.894Z,21.53
2017-10-26T16:03:29.642Z,21.01
2017-10-26T16:05:55.419Z,20.85
2017-10-26T16:08:21.199Z,20.68
2017-10-26T16:10:46.964Z,20.46
2017-10-26T16:13:12.715Z,20.33
2017-10-26T16:15:38.487Z,20.22
2017-10-26T16:18:04.273Z,20.09
2017-10-26T16:20:30.020Z,19.88
2017-10-26T16:22:56.238Z,19.69
2017-10-26T16:25:22.024Z,19.58
2017-10-26T16:27:47.791Z,19.43
2017-10-26T16:30:13.558Z,19.36
2017-10-26T16:32:39.316Z,19.23
2017-10-26T16:35:05.107Z,19.11
2017-10-26T16:37:30.879Z,18.96
2017-10-26T16:39:56.623Z,18.88
2017-10-26T16:42:22.382Z,18.76
2017-10-26T16:44:48.152Z,18.56
2017-10-26T16:47:14.022Z,18.47
2017-10-26T16:49:39.850Z,18.40
2017-10-26T16:52:05.646Z,18.38
2017-10-26T16:54:31.436Z,18.36
2017-10-26T16:56:57.195Z,18.27
2017-10-26T16:59:23.003Z,18.19
2017-10-26T17:01:48.763Z,18.03
2017-10-26T17:04:14.554Z,17.96
2017-10-26T17:06:40.304Z,17.91
2017-10-26T17:09:06.079Z,17.85
2017-10-26T17:11:31.835Z,17.71
2017-10-26T17:13:57.590Z,17.64
2017-10-26T17:16:23.368Z,17.55
2017-10-26T17:18:49.139Z,17.45
2017-10-26T17:21:14.899Z,17.41
2017-10-26T17:23:40.681Z,17.32
2017-10-26T17:28:47.437Z,17.31
2017-10-26T17:31:13.200Z,17.34
2017-10-26T17:33:38.988Z,17.33
2017-10-26T17:36:04.746Z,17.16
2017-10-26T17:38:30.523Z,17.08
2017-10-26T17:40:56.335Z,17.08
2017-10-26T17:43:22.101Z,16.98
2017-10-26T17:45:47.866Z,16.92
2017-10-26T17:48:13.688Z,16.84
2017-10-26T17:50:39.451Z,16.82
2017-10-26T17:53:05.235Z,16.82
2017-10-26T17:55:31.000Z,16.83
2017-10-26T17:57:56.783Z,16.83
2017-10-26T18:00:22.563Z,16.83
2017-10-26T18:02:48.330Z,16.81
2017-10-26T18:05:14.103Z,16.79
2017-10-26T18:07:39.896Z,16.80
2017-10-26T18:10:05.691Z,16.74
2017-10-26T18:12:31.452Z,16.77
2017-10-26T18:14:57.235Z,16.75
2017-10-26T18:17:23.021Z,16.71
2017-10-26T18:19:48.787Z,16.52
2017-10-26T18:22:14.544Z,16.54
2017-10-26T18:24:40.303Z,16.53
2017-10-26T18:27:06.105Z,16.34
2017-10-26T18:29:31.843Z,16.27
2017-10-26T18:31:57.596Z,16.24
2017-10-26T18:34:23.368Z,16.21
2017-10-26T18:36:49.147Z,16.25
2017-10-26T18:39:14.907Z,16.22
2017-10-26T18:41:40.670Z,16.21
2017-10-26T18:44:06.455Z,16.20
2017-10-26T18:46:32.201Z,16.18
2017-10-26T18:48:57.971Z,16.15
2017-10-26T18:51:23.743Z,16.11
2017-10-26T18:53:49.514Z,16.04
2017-10-26T18:56:15.279Z,15.99
2017-10-26T18:58:41.067Z,15.88
2017-10-26T19:01:06.804Z,15.85
2017-10-26T19:03:32.580Z,15.83
2017-10-26T19:05:58.363Z,15.84
2017-10-26T19:08:24.122Z,15.85
2017-10-26T19:10:49.890Z,15.85
2017-10-26T19:13:16.747Z,15.79
2017-10-26T19:15:42.495Z,15.76
2017-10-26T19:18:08.304Z,15.73
2017-10-26T19:20:34.060Z,15.67
2017-10-26T19:22:59.838Z,15.75
2017-10-26T19:25:25.584Z,15.69
2017-10-26T19:27:51.343Z,15.57
2017-10-26T19:30:17.125Z,15.56
2017-10-26T19:32:42.886Z,15.53
2017-10-26T19:35:08.667Z,15.52
2017-10-26T19:37:34.434Z,15.49
2017-10-26T19:40:00.176Z,15.51
2017-10-26T19:42:25.953Z,15.48
2017-10-26T19:44:51.748Z,15.40
2017-10-26T19:47:17.507Z,15.35
2017-10-26T19:49:43.268Z,15.35
2017-10-26T19:52:09.044Z,15.32
2017-10-26T19:54:34.791Z,15.24
2017-10-26T19:57:00.582Z,15.11
2017-10-26T19:59:26.335Z,15.18
2017-10-26T20:01:52.095Z,15.21
2017-10-26T20:04:17.873Z,15.19
2017-10-26T20:06:43.619Z,15.12
2017-10-26T20:09:09.406Z,15.06
2017-10-26T20:11:35.169Z,15.08
2017-10-26T20:14:00.928Z,15.02
2017-10-26T20:16:26.699Z,15.01
2017-10-26T20:18:52.502Z,14.97
2017-10-26T20:21:18.296Z,14.94
2017-10-26T20:23:44.098Z,14.84
2017-10-26T20:26:09.858Z,14.84
2017-10-26T20:28:35.648Z,14.80
2017-10-26T20:31:01.472Z,14.73
2017-10-26T20:33:27.319Z,14.71
2017-10-26T20:35:53.079Z,14.76
2017-10-26T20:38:18.867Z,14.75
2017-10-26T20:40:44.631Z,14.71
2017-10-26T20:43:10.362Z,14.71
2017-10-26T20:45:36.165Z,14.66
2017-10-26T20:48:01.974Z,14.66
2017-10-26T20:53:32.645Z,14.68
2017-10-26T20:56:04.463Z,14.78
2017-10-26T20:58:36.468Z,14.82
2017-10-26T21:01:08.399Z,14.77
2017-10-26T21:03:40.163Z,14.73
2017-10-26T21:06:12.171Z,14.75
2017-10-26T21:08:44.124Z,14.75
2017-10-26T21:11:16.093Z,14.70
2017-10-26T21:13:47.949Z,14.71
2017-10-26T21:16:13.719Z,14.75
2017-10-26T21:18:39.543Z,14.66
2017-10-26T21:21:05.288Z,14.65
2017-10-26T21:23:31.087Z,14.60
2017-10-26T21:25:56.939Z,14.60
2017-10-26T21:28:22.698Z,14.61
2017-10-26T21:30:48.468Z,14.67
2017-10-26T21:33:14.236Z,14.55
2017-10-26T21:35:39.999Z,14.51
2017-10-26T21:38:05.867Z,14.46
2017-10-26T21:40:31.611Z,14.29
2017-10-26T21:42:57.392Z,14.25
2017-10-26T21:45:23.155Z,14.22
2017-10-26T21:47:48.890Z,14.25
2017-10-26T21:50:14.648Z,14.24
2017-10-26T21:52:40.427Z,14.27
2017-10-26T21:55:06.172Z,14.19
2017-10-26T21:57:31.976Z,14.14
2017-10-26T21:59:57.734Z,14.14
2017-10-26T22:02:23.587Z,14.02
2017-10-26T22:04:49.455Z,14.03
2017-10-26T22:07:15.223Z,14.03
2017-10-26T22:09:41.075Z,14.05
2017-10-26T22:12:06.835Z,13.95
2017-10-26T22:14:32.600Z,13.96
2017-10-26T22:16:58.359Z,13.98
2017-10-26T22:19:24.128Z,14.03
2017-10-26T22:21:49.867Z,13.99
2017-10-26T22:24:15.714Z,13.96
2017-10-26T22:26:41.502Z,14.07
2017-10-26T22:29:07.271Z,14.16
2017-10-26T22:31:33.040Z,14.15
2017-10-26T22:33:58.823Z,14.15
2017-10-26T22:36:24.576Z,14.16
2017-10-26T22:38:50.328Z,14.19
2017-10-26T22:41:16.112Z,14.19
2017-10-26T22:43:41.887Z,14.29
2017-10-26T22:46:07.681Z,14.35
2017-10-26T22:48:33.451Z,14.35
2017-10-26T22:50:59.216Z,14.35
2017-10-26T22:53:25.007Z,14.25
2017-10-26T22:55:50.834Z,14.25
2017-10-26T22:58:16.580Z,14.26
2017-10-26T23:00:42.380Z,14.20
2017-10-26T23:03:08.127Z,14.20
2017-10-26T23:05:33.862Z,14.21
2017-10-26T23:07:59.664Z,14.16
2017-10-26T23:10:25.428Z,14.25
2017-10-26T23:12:51.168Z,14.29
2017-10-26T23:15:17.028Z,14.35
2017-10-26T23:17:42.775Z,14.34
2017-10-26T23:20:08.547Z,14.32
2017-10-26T23:22:34.319Z,14.33
2017-10-26T23:25:00.125Z,14.28
2017-10-26T23:27:25.884Z,14.28
2017-10-26T23:29:51.667Z,14.29
2017-10-26T23:32:17.425Z,14.09
2017-10-26T23:34:43.195Z,14.05
2017-10-26T23:37:09.027Z,14.12
2017-10-26T23:39:34.846Z,14.18
2017-10-26T23:42:00.607Z,14.18
2017-10-26T23:44:26.368Z,14.17
2017-10-26T23:46:52.147Z,14.16
2017-10-26T23:49:17.896Z,14.16
2017-10-26T23:51:43.650Z,14.06
2017-10-26T23:54:09.518Z,14.08
2017-10-26T23:56:35.259Z,14.01
2017-10-26T23:59:01.006Z,14.02
